sensor_id;sensor_type;location;lat;lon;timestamp;temperature;humidity
4964;DHT22;2497;47.410;9.740;2022-09-01T00:01:26;15.10;99.90
4964;DHT22;2497;47.410;9.740;2022-09-01T00:03:56;15.20;99.90
4964;DHT22;2497;47.410;9.740;2022-09-01T00:06:24;15.20;99.90
4964;DHT22;2497;47.410;9.740;2022-09-01T00:08:52;15.10;99.90
4964;DHT22;2497;47.410;9.740;2022-09-01T00:11:23;15.10;99.90
4964;DHT22;2497;47.410;9.740;2022-09-01T00:13:52;15.10;99.90
4964;DHT22;2497;47.410;9.740;2022-09-01T00:16:20;15.00;99.90
4964;DHT22;2497;47.410;9.740;2022-09-01T00:18:50;15.00;99.90
4964;DHT22;2497;47.410;9.740;2022-09-01T00:21:20;15.00;99.90
4964;DHT22;2497;47.410;9.740;2022-09-01T00:23:48;14.90;99.90
4964;DHT22;2497;47.410;9.740;2022-09-01T00:26:15;14.80;99.90
4964;DHT22;2497;47.410;9.740;2022-09-01T00:28:45;14.70;99.90
4964;DHT22;2497;47.410;9.740;2022-09-01T00:31:12;14.80;99.90
4964;DHT22;2497;47.410;9.740;2022-09-01T00:33:40;14.80;99.90
4964;DHT22;2497;47.410;9.740;2022-09-01T00:36:08;14.80;99.90
4964;DHT22;2497;47.410;9.740;2022-09-01T00:38:36;14.90;99.90
4964;DHT22;2497;47.410;9.740;2022-09-01T00:41:05;14.90;99.90
4964;DHT22;2497;47.410;9.740;2022-09-01T00:43:39;14.90;99.90
4964;DHT22;2497;47.410;9.740;2022-09-01T00:46:19;14.90;99.90
4964;DHT22;2497;47.410;9.740;2022-09-01T00:48:52;14.90;99.90
4964;DHT22;2497;47.410;9.740;2022-09-01T00:51:20;14.90;99.90
4964;DHT22;2497;47.410;9.740;2022-09-01T00:53:47;14.90;99.90
4964;DHT22;2497;47.410;9.740;2022-09-01T00:56:15;14.90;99.90
4964;DHT22;2497;47.410;9.740;2022-09-01T00:58:43;14.90;99.90
4964;DHT22;2497;47.410;9.740;2022-09-01T01:01:13;14.90;99.90
4964;DHT22;2497;47.410;9.740;2022-09-01T01:03:41;14.80;99.90
4964;DHT22;2497;47.410;9.740;2022-09-01T01:06:10;14.90;99.90
4964;DHT22;2497;47.410;9.740;2022-09-01T01:08:42;14.90;99.90
4964;DHT22;2497;47.410;9.740;2022-09-01T01:11:15;14.90;99.90
4964;DHT22;2497;47.410;9.740;2022-09-01T01:13:48;14.90;99.90
4964;DHT22;2497;47.410;9.740;2022-09-01T01:16:18;14.90;99.90
4964;DHT22;2497;47.410;9.740;2022-09-01T01:18:45;14.90;99.90
4964;DHT22;2497;47.410;9.740;2022-09-01T01:21:18;14.90;99.90
4964;DHT22;2497;47.410;9.740;2022-09-01T01:24:08;14.90;99.90
4964;DHT22;2497;47.410;9.740;2022-09-01T01:26:38;14.80;99.90
4964;DHT22;2497;47.410;9.740;2022-09-01T01:29:07;14.90;99.90
4964;DHT22;2497;47.410;9.740;2022-09-01T01:31:35;14.90;99.90
4964;DHT22;2497;47.410;9.740;2022-09-01T01:34:03;14.90;99.90
4964;DHT22;2497;47.410;9.740;2022-09-01T01:36:35;14.90;99.90
4964;DHT22;2497;47.410;9.740;2022-09-01T01:39:06;14.90;99.90
4964;DHT22;2497;47.410;9.740;2022-09-01T01:41:36;14.90;99.90
4964;DHT22;2497;47.410;9.740;2022-09-01T01:44:07;14.80;99.90
4964;DHT22;2497;47.410;9.740;2022-09-01T01:46:40;14.80;99.90
4964;DHT22;2497;47.410;9.740;2022-09-01T01:49:09;14.70;99.90
4964;DHT22;2497;47.410;9.740;2022-09-01T01:51:38;14.70;99.90
4964;DHT22;2497;47.410;9.740;2022-09-01T01:54:06;14.70;99.90
4964;DHT22;2497;47.410;9.740;2022-09-01T01:56:34;14.70;99.90
4964;DHT22;2497;47.410;9.740;2022-09-01T01:59:07;14.70;99.90
4964;DHT22;2497;47.410;9.740;2022-09-01T02:01:41;14.60;99.90
4964;DHT22;2497;47.410;9.740;2022-09-01T02:04:09;14.60;99.90
4964;DHT22;2497;47.410;9.740;2022-09-01T02:06:37;14.60;99.90
4964;DHT22;2497;47.410;9.740;2022-09-01T02:09:07;14.60;99.90
4964;DHT22;2497;47.410;9.740;2022-09-01T02:11:34;14.60;99.90
4964;DHT22;2497;47.410;9.740;2022-09-01T02:14:03;14.60;99.90
4964;DHT22;2497;47.410;9.740;2022-09-01T02:16:33;14.60;99.90
4964;DHT22;2497;47.410;9.740;2022-09-01T02:19:03;14.60;99.90
4964;DHT22;2497;47.410;9.740;2022-09-01T02:21:32;14.60;99.90
4964;DHT22;2497;47.410;9.740;2022-09-01T02:24:02;14.60;99.90
4964;DHT22;2497;47.410;9.740;2022-09-01T02:26:31;14.60;99.90
4964;DHT22;2497;47.410;9.740;2022-09-01T02:29:01;14.50;99.90
4964;DHT22;2497;47.410;9.740;2022-09-01T02:31:30;14.50;99.90
4964;DHT22;2497;47.410;9.740;2022-09-01T02:34:02;14.50;99.90
4964;DHT22;2497;47.410;9.740;2022-09-01T02:36:30;14.60;99.90
4964;DHT22;2497;47.410;9.740;2022-09-01T02:39:00;14.60;99.90
4964;DHT22;2497;47.410;9.740;2022-09-01T02:41:27;14.70;99.90
4964;DHT22;2497;47.410;9.740;2022-09-01T02:44:02;14.80;99.90
4964;DHT22;2497;47.410;9.740;2022-09-01T02:46:37;14.80;99.90
4964;DHT22;2497;47.410;9.740;2022-09-01T02:49:09;14.80;99.90
4964;DHT22;2497;47.410;9.740;2022-09-01T02:51:40;14.70;99.90
4964;DHT22;2497;47.410;9.740;2022-09-01T02:54:08;14.80;99.90
4964;DHT22;2497;47.410;9.740;2022-09-01T02:56:35;14.70;99.90
4964;DHT22;2497;47.410;9.740;2022-09-01T02:59:03;14.70;99.90
4964;DHT22;2497;47.410;9.740;2022-09-01T03:01:31;14.70;99.90
4964;DHT22;2497;47.410;9.740;2022-09-01T03:04:01;14.70;99.90
4964;DHT22;2497;47.410;9.740;2022-09-01T03:06:31;14.70;99.90
4964;DHT22;2497;47.410;9.740;2022-09-01T03:09:03;14.60;99.90
4964;DHT22;2497;47.410;9.740;2022-09-01T03:11:32;14.60;99.90
4964;DHT22;2497;47.410;9.740;2022-09-01T03:14:00;14.60;99.90
4964;DHT22;2497;47.410;9.740;2022-09-01T03:16:27;14.70;99.90
4964;DHT22;2497;47.410;9.740;2022-09-01T03:18:56;14.70;99.90
4964;DHT22;2497;47.410;9.740;2022-09-01T03:21:24;14.70;99.90
4964;DHT22;2497;47.410;9.740;2022-09-01T03:23:53;14.80;99.90
4964;DHT22;2497;47.410;9.740;2022-09-01T03:26:23;14.80;99.90
4964;DHT22;2497;47.410;9.740;2022-09-01T03:28:51;14.80;99.90
4964;DHT22;2497;47.410;9.740;2022-09-01T03:31:20;14.80;99.90
4964;DHT22;2497;47.410;9.740;2022-09-01T03:33:47;14.80;99.90
4964;DHT22;2497;47.410;9.740;2022-09-01T03:36:15;14.80;99.90
4964;DHT22;2497;47.410;9.740;2022-09-01T03:38:46;14.80;99.90
4964;DHT22;2497;47.410;9.740;2022-09-01T03:41:17;14.80;99.90
4964;DHT22;2497;47.410;9.740;2022-09-01T03:43:46;14.80;99.90
4964;DHT22;2497;47.410;9.740;2022-09-01T03:46:14;14.80;99.90
4964;DHT22;2497;47.410;9.740;2022-09-01T03:48:45;14.80;99.90
4964;DHT22;2497;47.410;9.740;2022-09-01T03:51:13;14.80;99.90
4964;DHT22;2497;47.410;9.740;2022-09-01T03:53:41;14.90;99.90
4964;DHT22;2497;47.410;9.740;2022-09-01T03:56:10;14.90;99.90
4964;DHT22;2497;47.410;9.740;2022-09-01T03:58:41;14.90;99.90
4964;DHT22;2497;47.410;9.740;2022-09-01T04:01:12;14.90;99.90
4964;DHT22;2497;47.410;9.740;2022-09-01T04:03:40;15.10;99.90
4964;DHT22;2497;47.410;9.740;2022-09-01T04:06:14;15.00;99.90
4964;DHT22;2497;47.410;9.740;2022-09-01T04:08:43;15.10;99.90
4964;DHT22;2497;47.410;9.740;2022-09-01T04:11:13;15.20;99.90
4964;DHT22;2497;47.410;9.740;2022-09-01T04:13:45;15.10;99.90
4964;DHT22;2497;47.410;9.740;2022-09-01T04:16:18;15.00;99.90
4964;DHT22;2497;47.410;9.740;2022-09-01T04:19:03;15.10;99.90
4964;DHT22;2497;47.410;9.740;2022-09-01T04:21:40;15.00;99.90
4964;DHT22;2497;47.410;9.740;2022-09-01T04:24:09;15.00;99.90
4964;DHT22;2497;47.410;9.740;2022-09-01T04:26:38;15.10;99.90
4964;DHT22;2497;47.410;9.740;2022-09-01T04:29:08;15.10;99.90
4964;DHT22;2497;47.410;9.740;2022-09-01T04:31:37;15.10;99.90
4964;DHT22;2497;47.410;9.740;2022-09-01T04:34:06;15.10;99.90
4964;DHT22;2497;47.410;9.740;2022-09-01T04:36:39;15.10;99.90
4964;DHT22;2497;47.410;9.740;2022-09-01T04:39:08;15.10;99.90
4964;DHT22;2497;47.410;9.740;2022-09-01T04:41:39;15.10;99.90
4964;DHT22;2497;47.410;9.740;2022-09-01T04:44:09;15.20;99.90
4964;DHT22;2497;47.410;9.740;2022-09-01T04:46:38;15.20;99.90
4964;DHT22;2497;47.410;9.740;2022-09-01T04:49:08;15.10;99.90
4964;DHT22;2497;47.410;9.740;2022-09-01T04:51:37;15.00;99.90
4964;DHT22;2497;47.410;9.740;2022-09-01T04:54:06;15.10;99.90
4964;DHT22;2497;47.410;9.740;2022-09-01T04:56:37;15.10;99.90
4964;DHT22;2497;47.410;9.740;2022-09-01T04:59:05;15.20;99.90
4964;DHT22;2497;47.410;9.740;2022-09-01T05:01:37;15.20;99.90
4964;DHT22;2497;47.410;9.740;2022-09-01T05:04:11;15.20;99.90
4964;DHT22;2497;47.410;9.740;2022-09-01T05:06:40;15.20;99.90
4964;DHT22;2497;47.410;9.740;2022-09-01T05:09:09;15.10;99.90
4964;DHT22;2497;47.410;9.740;2022-09-01T05:11:37;15.10;99.90
4964;DHT22;2497;47.410;9.740;2022-09-01T05:14:11;15.10;99.90
4964;DHT22;2497;47.410;9.740;2022-09-01T05:16:40;15.00;99.90
4964;DHT22;2497;47.410;9.740;2022-09-01T05:19:08;15.00;99.90
4964;DHT22;2497;47.410;9.740;2022-09-01T05:21:44;15.10;99.90
4964;DHT22;2497;47.410;9.740;2022-09-01T05:24:17;15.10;99.90
4964;DHT22;2497;47.410;9.740;2022-09-01T05:26:46;15.20;99.90
4964;DHT22;2497;47.410;9.740;2022-09-01T05:29:15;15.30;99.90
4964;DHT22;2497;47.410;9.740;2022-09-01T05:31:46;15.20;99.90
4964;DHT22;2497;47.410;9.740;2022-09-01T05:34:15;15.20;99.90
4964;DHT22;2497;47.410;9.740;2022-09-01T05:36:48;15.20;99.90
4964;DHT22;2497;47.410;9.740;2022-09-01T05:39:16;15.20;99.90
4964;DHT22;2497;47.410;9.740;2022-09-01T05:41:44;15.20;99.90
4964;DHT22;2497;47.410;9.740;2022-09-01T05:44:13;15.30;99.90
4964;DHT22;2497;47.410;9.740;2022-09-01T05:46:41;15.40;99.90
4964;DHT22;2497;47.410;9.740;2022-09-01T05:49:11;15.40;99.90
4964;DHT22;2497;47.410;9.740;2022-09-01T05:51:42;15.40;99.90
4964;DHT22;2497;47.410;9.740;2022-09-01T05:54:11;15.40;99.90
4964;DHT22;2497;47.410;9.740;2022-09-01T05:56:39;15.40;99.90
4964;DHT22;2497;47.410;9.740;2022-09-01T05:59:07;15.40;99.90
4964;DHT22;2497;47.410;9.740;2022-09-01T06:01:36;15.40;99.90
4964;DHT22;2497;47.410;9.740;2022-09-01T06:04:07;15.40;99.90
4964;DHT22;2497;47.410;9.740;2022-09-01T06:06:39;15.40;99.90
4964;DHT22;2497;47.410;9.740;2022-09-01T06:09:09;15.50;99.90
4964;DHT22;2497;47.410;9.740;2022-09-01T06:11:37;15.50;99.90
4964;DHT22;2497;47.410;9.740;2022-09-01T06:14:06;15.60;99.90
4964;DHT22;2497;47.410;9.740;2022-09-01T06:16:36;15.60;99.90
4964;DHT22;2497;47.410;9.740;2022-09-01T06:19:04;15.60;99.90
4964;DHT22;2497;47.410;9.740;2022-09-01T06:21:32;15.60;99.90
4964;DHT22;2497;47.410;9.740;2022-09-01T06:24:00;15.70;99.90
4964;DHT22;2497;47.410;9.740;2022-09-01T06:26:34;15.70;99.90
4964;DHT22;2497;47.410;9.740;2022-09-01T06:29:04;15.70;99.90
4964;DHT22;2497;47.410;9.740;2022-09-01T06:31:34;15.70;99.90
4964;DHT22;2497;47.410;9.740;2022-09-01T06:34:06;15.70;99.90
4964;DHT22;2497;47.410;9.740;2022-09-01T06:36:35;15.80;99.90
4964;DHT22;2497;47.410;9.740;2022-09-01T06:39:06;15.80;99.90
4964;DHT22;2497;47.410;9.740;2022-09-01T06:41:34;15.80;99.90
4964;DHT22;2497;47.410;9.740;2022-09-01T06:44:03;15.80;99.90
4964;DHT22;2497;47.410;9.740;2022-09-01T06:46:31;15.80;99.90
4964;DHT22;2497;47.410;9.740;2022-09-01T06:48:59;15.80;99.90
4964;DHT22;2497;47.410;9.740;2022-09-01T06:51:28;15.90;99.90
4964;DHT22;2497;47.410;9.740;2022-09-01T06:53:56;15.90;99.90
4964;DHT22;2497;47.410;9.740;2022-09-01T06:56:26;15.90;99.90
4964;DHT22;2497;47.410;9.740;2022-09-01T06:58:56;15.90;99.90
4964;DHT22;2497;47.410;9.740;2022-09-01T07:01:24;15.90;99.90
4964;DHT22;2497;47.410;9.740;2022-09-01T07:03:53;15.90;99.90
4964;DHT22;2497;47.410;9.740;2022-09-01T07:06:22;15.90;99.90
4964;DHT22;2497;47.410;9.740;2022-09-01T07:08:54;16.00;99.90
4964;DHT22;2497;47.410;9.740;2022-09-01T07:11:26;16.00;99.90
4964;DHT22;2497;47.410;9.740;2022-09-01T07:13:56;16.00;99.90
4964;DHT22;2497;47.410;9.740;2022-09-01T07:16:25;16.10;99.90
4964;DHT22;2497;47.410;9.740;2022-09-01T07:18:54;16.10;99.90
4964;DHT22;2497;47.410;9.740;2022-09-01T07:21:23;16.20;99.90
4964;DHT22;2497;47.410;9.740;2022-09-01T07:23:51;16.20;99.90
4964;DHT22;2497;47.410;9.740;2022-09-01T07:26:18;16.20;99.90
4964;DHT22;2497;47.410;9.740;2022-09-01T07:28:49;16.30;99.90
4964;DHT22;2497;47.410;9.740;2022-09-01T07:31:18;16.30;99.90
4964;DHT22;2497;47.410;9.740;2022-09-01T07:33:48;16.40;99.90
4964;DHT22;2497;47.410;9.740;2022-09-01T07:36:16;16.40;99.90
4964;DHT22;2497;47.410;9.740;2022-09-01T07:38:44;16.30;99.90
4964;DHT22;2497;47.410;9.740;2022-09-01T07:41:18;16.40;99.90
4964;DHT22;2497;47.410;9.740;2022-09-01T07:43:46;16.50;99.90
4964;DHT22;2497;47.410;9.740;2022-09-01T07:46:19;16.50;99.90
4964;DHT22;2497;47.410;9.740;2022-09-01T07:48:48;16.50;99.90
4964;DHT22;2497;47.410;9.740;2022-09-01T07:51:17;16.50;99.90
4964;DHT22;2497;47.410;9.740;2022-09-01T07:53:46;16.50;99.90
4964;DHT22;2497;47.410;9.740;2022-09-01T07:56:15;16.70;99.90
4964;DHT22;2497;47.410;9.740;2022-09-01T07:58:44;16.80;99.90
4964;DHT22;2497;47.410;9.740;2022-09-01T08:01:17;16.80;99.90
4964;DHT22;2497;47.410;9.740;2022-09-01T08:03:48;16.80;99.90
4964;DHT22;2497;47.410;9.740;2022-09-01T08:06:19;16.90;99.90
4964;DHT22;2497;47.410;9.740;2022-09-01T08:08:48;16.90;99.90
4964;DHT22;2497;47.410;9.740;2022-09-01T08:11:17;16.90;99.90
4964;DHT22;2497;47.410;9.740;2022-09-01T08:13:45;17.00;99.90
4964;DHT22;2497;47.410;9.740;2022-09-01T08:16:13;17.00;99.90
4964;DHT22;2497;47.410;9.740;2022-09-01T08:18:41;16.90;99.90
4964;DHT22;2497;47.410;9.740;2022-09-01T08:21:11;17.00;99.90
4964;DHT22;2497;47.410;9.740;2022-09-01T08:23:40;17.00;99.90
4964;DHT22;2497;47.410;9.740;2022-09-01T08:26:09;17.20;99.90
4964;DHT22;2497;47.410;9.740;2022-09-01T08:28:37;17.20;99.90
4964;DHT22;2497;47.410;9.740;2022-09-01T08:31:06;17.20;99.90
4964;DHT22;2497;47.410;9.740;2022-09-01T08:33:35;17.20;99.90
4964;DHT22;2497;47.410;9.740;2022-09-01T08:36:03;17.20;99.90
4964;DHT22;2497;47.410;9.740;2022-09-01T08:38:35;17.40;99.90
4964;DHT22;2497;47.410;9.740;2022-09-01T08:41:03;17.40;99.90
4964;DHT22;2497;47.410;9.740;2022-09-01T08:43:44;17.50;99.90
4964;DHT22;2497;47.410;9.740;2022-09-01T08:46:18;17.70;99.90
4964;DHT22;2497;47.410;9.740;2022-09-01T08:48:51;17.60;99.90
4964;DHT22;2497;47.410;9.740;2022-09-01T08:51:25;17.80;99.90
4964;DHT22;2497;47.410;9.740;2022-09-01T08:54:00;17.70;99.90
4964;DHT22;2497;47.410;9.740;2022-09-01T08:56:28;17.70;99.90
4964;DHT22;2497;47.410;9.740;2022-09-01T08:58:55;18.00;99.90
4964;DHT22;2497;47.410;9.740;2022-09-01T09:01:28;18.00;99.90
4964;DHT22;2497;47.410;9.740;2022-09-01T09:04:17;18.00;99.90
4964;DHT22;2497;47.410;9.740;2022-09-01T09:06:51;18.20;99.90
4964;DHT22;2497;47.410;9.740;2022-09-01T09:09:29;18.10;99.90
4964;DHT22;2497;47.410;9.740;2022-09-01T09:12:12;18.10;99.90
4964;DHT22;2497;47.410;9.740;2022-09-01T09:14:59;18.00;99.90
4964;DHT22;2497;47.410;9.740;2022-09-01T09:17:30;18.00;99.90
4964;DHT22;2497;47.410;9.740;2022-09-01T09:20:00;18.00;99.90
4964;DHT22;2497;47.410;9.740;2022-09-01T09:22:28;18.10;99.90
4964;DHT22;2497;47.410;9.740;2022-09-01T09:25:02;18.50;99.90
4964;DHT22;2497;47.410;9.740;2022-09-01T09:27:33;18.80;99.90
4964;DHT22;2497;47.410;9.740;2022-09-01T09:30:03;18.60;99.90
4964;DHT22;2497;47.410;9.740;2022-09-01T09:32:47;18.70;99.90
4964;DHT22;2497;47.410;9.740;2022-09-01T09:35:25;18.90;99.90
4964;DHT22;2497;47.410;9.740;2022-09-01T09:37:53;18.90;99.90
4964;DHT22;2497;47.410;9.740;2022-09-01T09:40:24;19.00;99.90
4964;DHT22;2497;47.410;9.740;2022-09-01T09:43:04;19.20;99.90
4964;DHT22;2497;47.410;9.740;2022-09-01T09:45:34;19.30;99.90
4964;DHT22;2497;47.410;9.740;2022-09-01T09:48:07;19.30;99.90
4964;DHT22;2497;47.410;9.740;2022-09-01T09:50:37;19.30;99.90
4964;DHT22;2497;47.410;9.740;2022-09-01T09:53:26;19.40;99.90
4964;DHT22;2497;47.410;9.740;2022-09-01T09:55:58;19.50;99.90
4964;DHT22;2497;47.410;9.740;2022-09-01T09:58:33;19.80;99.90
4964;DHT22;2497;47.410;9.740;2022-09-01T10:01:10;20.00;99.90
4964;DHT22;2497;47.410;9.740;2022-09-01T10:03:42;20.00;99.90
4964;DHT22;2497;47.410;9.740;2022-09-01T10:06:29;20.00;99.90
4964;DHT22;2497;47.410;9.740;2022-09-01T10:08:57;20.00;99.90
4964;DHT22;2497;47.410;9.740;2022-09-01T10:11:32;20.00;99.90
4964;DHT22;2497;47.410;9.740;2022-09-01T10:14:05;20.10;99.90
4964;DHT22;2497;47.410;9.740;2022-09-01T10:16:33;19.80;99.90
4964;DHT22;2497;47.410;9.740;2022-09-01T10:19:05;19.80;99.90
4964;DHT22;2497;47.410;9.740;2022-09-01T10:21:36;19.90;99.90
4964;DHT22;2497;47.410;9.740;2022-09-01T10:24:13;19.90;99.90
4964;DHT22;2497;47.410;9.740;2022-09-01T10:26:45;20.30;99.90
4964;DHT22;2497;47.410;9.740;2022-09-01T10:29:19;20.40;99.90
4964;DHT22;2497;47.410;9.740;2022-09-01T10:31:47;20.50;99.90
4964;DHT22;2497;47.410;9.740;2022-09-01T10:34:17;20.50;99.90
4964;DHT22;2497;47.410;9.740;2022-09-01T10:36:45;21.10;99.90
4964;DHT22;2497;47.410;9.740;2022-09-01T10:39:15;21.50;99.90
4964;DHT22;2497;47.410;9.740;2022-09-01T10:41:50;21.50;99.90
4964;DHT22;2497;47.410;9.740;2022-09-01T10:44:21;21.20;99.90
4964;DHT22;2497;47.410;9.740;2022-09-01T10:46:50;20.90;99.90
4964;DHT22;2497;47.410;9.740;2022-09-01T10:49:56;20.70;99.90
4964;DHT22;2497;47.410;9.740;2022-09-01T10:53:02;20.80;99.90
4964;DHT22;2497;47.410;9.740;2022-09-01T10:55:33;20.90;99.90
4964;DHT22;2497;47.410;9.740;2022-09-01T10:58:32;20.90;99.90
4964;DHT22;2497;47.410;9.740;2022-09-01T11:01:00;21.10;99.90
4964;DHT22;2497;47.410;9.740;2022-09-01T11:03:58;21.10;99.90
4964;DHT22;2497;47.410;9.740;2022-09-01T11:06:54;20.80;99.90
4964;DHT22;2497;47.410;9.740;2022-09-01T11:09:25;20.80;99.90
4964;DHT22;2497;47.410;9.740;2022-09-01T11:15:03;20.70;99.90
4964;DHT22;2497;47.410;9.740;2022-09-01T11:17:33;20.80;99.90
4964;DHT22;2497;47.410;9.740;2022-09-01T11:20:05;21.00;99.90
4964;DHT22;2497;47.410;9.740;2022-09-01T11:22:37;21.70;99.90
4964;DHT22;2497;47.410;9.740;2022-09-01T11:25:35;21.90;99.90
4964;DHT22;2497;47.410;9.740;2022-09-01T11:28:37;22.00;99.90
4964;DHT22;2497;47.410;9.740;2022-09-01T11:31:34;22.20;99.90
4964;DHT22;2497;47.410;9.740;2022-09-01T11:34:17;22.40;99.90
4964;DHT22;2497;47.410;9.740;2022-09-01T11:36:53;22.90;99.90
4964;DHT22;2497;47.410;9.740;2022-09-01T11:39:39;22.90;99.90
4964;DHT22;2497;47.410;9.740;2022-09-01T11:42:17;23.30;99.90
4964;DHT22;2497;47.410;9.740;2022-09-01T11:44:48;23.30;99.90
4964;DHT22;2497;47.410;9.740;2022-09-01T11:47:21;22.80;99.90
4964;DHT22;2497;47.410;9.740;2022-09-01T11:49:54;22.50;99.90
4964;DHT22;2497;47.410;9.740;2022-09-01T11:52:24;22.50;99.90
4964;DHT22;2497;47.410;9.740;2022-09-01T11:54:53;22.30;99.90
4964;DHT22;2497;47.410;9.740;2022-09-01T11:57:23;22.40;99.90
4964;DHT22;2497;47.410;9.740;2022-09-01T11:59:51;22.50;99.90
4964;DHT22;2497;47.410;9.740;2022-09-01T12:02:23;22.50;99.90
4964;DHT22;2497;47.410;9.740;2022-09-01T12:04:51;22.50;99.90
4964;DHT22;2497;47.410;9.740;2022-09-01T12:07:36;22.60;99.90
4964;DHT22;2497;47.410;9.740;2022-09-01T12:10:14;22.70;99.90
4964;DHT22;2497;47.410;9.740;2022-09-01T12:12:42;22.60;99.90
4964;DHT22;2497;47.410;9.740;2022-09-01T12:15:17;22.70;99.90
4964;DHT22;2497;47.410;9.740;2022-09-01T12:17:46;22.90;99.90
4964;DHT22;2497;47.410;9.740;2022-09-01T12:20:26;22.70;99.90
4964;DHT22;2497;47.410;9.740;2022-09-01T12:22:56;22.60;99.90
4964;DHT22;2497;47.410;9.740;2022-09-01T12:25:24;23.00;99.90
4964;DHT22;2497;47.410;9.740;2022-09-01T12:27:53;23.40;99.90
4964;DHT22;2497;47.410;9.740;2022-09-01T12:30:21;23.10;99.90
4964;DHT22;2497;47.410;9.740;2022-09-01T12:32:50;23.40;99.90
4964;DHT22;2497;47.410;9.740;2022-09-01T12:35:21;23.10;99.90
4964;DHT22;2497;47.410;9.740;2022-09-01T12:37:50;23.00;99.90
4964;DHT22;2497;47.410;9.740;2022-09-01T12:40:23;22.90;99.90
4964;DHT22;2497;47.410;9.740;2022-09-01T12:42:52;22.80;99.90
4964;DHT22;2497;47.410;9.740;2022-09-01T12:45:40;22.50;99.90
4964;DHT22;2497;47.410;9.740;2022-09-01T12:48:24;22.30;99.90
4964;DHT22;2497;47.410;9.740;2022-09-01T12:50:53;22.10;99.90
4964;DHT22;2497;47.410;9.740;2022-09-01T12:53:26;22.20;99.90
4964;DHT22;2497;47.410;9.740;2022-09-01T12:56:19;22.30;99.90
4964;DHT22;2497;47.410;9.740;2022-09-01T12:58:48;22.40;99.90
4964;DHT22;2497;47.410;9.740;2022-09-01T13:01:27;22.50;99.90
4964;DHT22;2497;47.410;9.740;2022-09-01T13:04:11;22.80;99.90
4964;DHT22;2497;47.410;9.740;2022-09-01T13:06:39;22.40;99.90
4964;DHT22;2497;47.410;9.740;2022-09-01T13:09:07;22.30;99.90
4964;DHT22;2497;47.410;9.740;2022-09-01T13:11:34;22.10;99.90
4964;DHT22;2497;47.410;9.740;2022-09-01T13:14:05;22.20;99.90
4964;DHT22;2497;47.410;9.740;2022-09-01T13:16:33;22.20;99.90
4964;DHT22;2497;47.410;9.740;2022-09-01T13:19:02;22.40;99.90
4964;DHT22;2497;47.410;9.740;2022-09-01T13:21:34;22.60;99.90
4964;DHT22;2497;47.410;9.740;2022-09-01T13:24:02;22.90;99.90
4964;DHT22;2497;47.410;9.740;2022-09-01T13:26:30;23.00;99.90
4964;DHT22;2497;47.410;9.740;2022-09-01T13:28:57;22.80;99.90
4964;DHT22;2497;47.410;9.740;2022-09-01T13:31:26;23.30;99.90
4964;DHT22;2497;47.410;9.740;2022-09-01T13:33:56;23.60;99.90
4964;DHT22;2497;47.410;9.740;2022-09-01T13:36:24;23.70;99.90
4964;DHT22;2497;47.410;9.740;2022-09-01T13:38:53;23.50;99.90
4964;DHT22;2497;47.410;9.740;2022-09-01T13:41:20;23.30;99.90
4964;DHT22;2497;47.410;9.740;2022-09-01T13:43:48;23.00;99.90
4964;DHT22;2497;47.410;9.740;2022-09-01T13:46:15;22.80;99.90
4964;DHT22;2497;47.410;9.740;2022-09-01T13:48:43;22.90;99.90
4964;DHT22;2497;47.410;9.740;2022-09-01T13:51:10;22.80;99.90
4964;DHT22;2497;47.410;9.740;2022-09-01T13:53:38;22.60;99.90
4964;DHT22;2497;47.410;9.740;2022-09-01T13:56:07;22.40;99.90
4964;DHT22;2497;47.410;9.740;2022-09-01T13:58:35;22.30;99.90
4964;DHT22;2497;47.410;9.740;2022-09-01T14:01:02;21.80;99.90
4964;DHT22;2497;47.410;9.740;2022-09-01T14:03:29;21.80;99.90
4964;DHT22;2497;47.410;9.740;2022-09-01T14:05:56;21.80;99.90
4964;DHT22;2497;47.410;9.740;2022-09-01T14:08:24;21.90;99.90
4964;DHT22;2497;47.410;9.740;2022-09-01T14:10:52;22.00;99.90
4964;DHT22;2497;47.410;9.740;2022-09-01T14:13:22;22.20;99.90
4964;DHT22;2497;47.410;9.740;2022-09-01T14:15:50;22.50;99.90
4964;DHT22;2497;47.410;9.740;2022-09-01T14:18:18;22.80;99.90
4964;DHT22;2497;47.410;9.740;2022-09-01T14:20:47;23.00;99.90
4964;DHT22;2497;47.410;9.740;2022-09-01T14:23:16;23.10;99.90
4964;DHT22;2497;47.410;9.740;2022-09-01T14:25:46;23.30;99.90
4964;DHT22;2497;47.410;9.740;2022-09-01T14:28:14;23.10;99.90
4964;DHT22;2497;47.410;9.740;2022-09-01T14:30:43;22.80;99.90
4964;DHT22;2497;47.410;9.740;2022-09-01T14:33:11;22.70;99.90
4964;DHT22;2497;47.410;9.740;2022-09-01T14:35:42;22.40;99.90
4964;DHT22;2497;47.410;9.740;2022-09-01T14:38:11;22.40;99.90
4964;DHT22;2497;47.410;9.740;2022-09-01T14:40:40;22.50;99.90
4964;DHT22;2497;47.410;9.740;2022-09-01T14:43:09;22.80;99.90
4964;DHT22;2497;47.410;9.740;2022-09-01T14:45:37;22.90;99.90
4964;DHT22;2497;47.410;9.740;2022-09-01T14:48:07;22.80;99.90
4964;DHT22;2497;47.410;9.740;2022-09-01T14:50:39;22.70;99.90
4964;DHT22;2497;47.410;9.740;2022-09-01T14:53:07;22.90;99.90
4964;DHT22;2497;47.410;9.740;2022-09-01T14:55:43;23.00;99.90
4964;DHT22;2497;47.410;9.740;2022-09-01T14:58:11;22.90;99.90
4964;DHT22;2497;47.410;9.740;2022-09-01T15:00:38;22.90;99.90
4964;DHT22;2497;47.410;9.740;2022-09-01T15:03:08;22.90;99.90
4964;DHT22;2497;47.410;9.740;2022-09-01T15:05:37;22.90;99.90
4964;DHT22;2497;47.410;9.740;2022-09-01T15:08:05;22.90;99.90
4964;DHT22;2497;47.410;9.740;2022-09-01T15:10:33;22.80;99.90
4964;DHT22;2497;47.410;9.740;2022-09-01T15:13:01;22.90;99.90
4964;DHT22;2497;47.410;9.740;2022-09-01T15:15:29;22.90;99.90
4964;DHT22;2497;47.410;9.740;2022-09-01T15:17:59;22.90;99.90
4964;DHT22;2497;47.410;9.740;2022-09-01T15:20:29;22.80;99.90
4964;DHT22;2497;47.410;9.740;2022-09-01T15:23:14;22.90;99.90
4964;DHT22;2497;47.410;9.740;2022-09-01T15:37:47;22.80;99.90
4964;DHT22;2497;47.410;9.740;2022-09-01T15:40:16;22.60;99.90
4964;DHT22;2497;47.410;9.740;2022-09-01T15:42:44;22.50;99.90
4964;DHT22;2497;47.410;9.740;2022-09-01T15:45:16;22.50;99.90
4964;DHT22;2497;47.410;9.740;2022-09-01T15:47:48;22.50;99.90
4964;DHT22;2497;47.410;9.740;2022-09-01T15:50:19;22.40;99.90
4964;DHT22;2497;47.410;9.740;2022-09-01T15:52:51;22.30;99.90
4964;DHT22;2497;47.410;9.740;2022-09-01T15:55:20;22.10;99.90
4964;DHT22;2497;47.410;9.740;2022-09-01T15:57:48;22.00;99.90
4964;DHT22;2497;47.410;9.740;2022-09-01T16:00:17;21.90;99.90
4964;DHT22;2497;47.410;9.740;2022-09-01T16:02:44;21.70;99.90
4964;DHT22;2497;47.410;9.740;2022-09-01T16:05:12;21.70;99.90
4964;DHT22;2497;47.410;9.740;2022-09-01T16:07:39;21.80;99.90
4964;DHT22;2497;47.410;9.740;2022-09-01T16:10:10;21.90;99.90
4964;DHT22;2497;47.410;9.740;2022-09-01T16:12:39;21.80;99.90
4964;DHT22;2497;47.410;9.740;2022-09-01T16:15:10;21.90;99.90
4964;DHT22;2497;47.410;9.740;2022-09-01T16:17:47;21.90;99.90
4964;DHT22;2497;47.410;9.740;2022-09-01T16:20:19;21.90;99.90
4964;DHT22;2497;47.410;9.740;2022-09-01T16:22:53;21.80;99.90
4964;DHT22;2497;47.410;9.740;2022-09-01T16:25:27;21.90;99.90
4964;DHT22;2497;47.410;9.740;2022-09-01T16:27:56;21.80;99.90
4964;DHT22;2497;47.410;9.740;2022-09-01T16:30:28;21.70;99.90
4964;DHT22;2497;47.410;9.740;2022-09-01T16:32:58;21.70;99.90
4964;DHT22;2497;47.410;9.740;2022-09-01T16:35:33;21.70;99.90
4964;DHT22;2497;47.410;9.740;2022-09-01T16:38:08;21.70;99.90
4964;DHT22;2497;47.410;9.740;2022-09-01T16:40:45;21.90;99.90
4964;DHT22;2497;47.410;9.740;2022-09-01T16:43:18;21.90;99.90